Time;durP1;ratioP1;P1;durP2;ratioP2;P2;SDS_P1;SDS_P2;PMS_P1;PMS_P2;Temp;Humidity;BMP_temperature;BMP_pressure;BME280_temperature;BME280_humidity;BME280_pressure;Samples;Min_cycle;Max_cycle;Signal;HPM_P1;HPM_P2
2022/12/11 00:00:19;;;;;;;13.77;8.20;;;1.00;99.90;;;;;;5031011;28;20616;-68
2022/12/11 00:02:45;;;;;;;15.97;8.40;;;1.10;99.90;;;;;;5017377;28;20451;-69
2022/12/11 00:05:11;;;;;;;20.70;9.20;;;1.10;99.90;;;;;;5030320;28;20355;-68
2022/12/11 00:07:36;;;;;;;15.27;8.80;;;1.10;99.90;;;;;;5024558;28;20223;-71
2022/12/11 00:10:03;;;;;;;13.90;8.50;;;1.10;99.90;;;;;;5032015;28;20221;-69
2022/12/11 00:12:29;;;;;;;13.13;8.30;;;1.20;99.90;;;;;;5027251;28;20226;-68
2022/12/11 00:14:55;;;;;;;15.37;9.17;;;1.20;99.90;;;;;;5044209;28;20462;-68
2022/12/11 00:17:21;;;;;;;18.00;8.90;;;1.20;99.90;;;;;;5012915;28;20656;-69
2022/12/11 00:19:46;;;;;;;15.03;9.07;;;1.20;99.90;;;;;;5030050;28;20216;-69
2022/12/11 00:22:12;;;;;;;20.10;10.00;;;1.20;99.90;;;;;;5030164;28;20646;-69
2022/12/11 00:24:38;;;;;;;20.27;11.17;;;1.20;99.90;;;;;;5034582;28;20232;-68
2022/12/11 00:27:03;;;;;;;20.13;11.00;;;1.20;99.90;;;;;;5016387;28;20222;-68
2022/12/11 00:29:29;;;;;;;23.20;12.10;;;1.20;99.90;;;;;;5020269;28;20232;-68
2022/12/11 00:31:55;;;;;;;22.03;12.07;;;1.20;99.90;;;;;;5016980;28;20235;-69
2022/12/11 00:34:20;;;;;;;23.40;10.80;;;1.20;99.90;;;;;;5037176;28;20274;-68
2022/12/11 00:36:47;;;;;;;23.77;11.30;;;1.20;99.90;;;;;;5018755;28;20244;-69
2022/12/11 00:39:12;;;;;;;21.73;10.90;;;1.20;99.90;;;;;;5014949;28;20219;-67
2022/12/11 00:41:38;;;;;;;21.67;10.57;;;1.20;99.90;;;;;;5042508;28;20466;-68
2022/12/11 00:44:04;;;;;;;23.13;11.40;;;1.20;99.90;;;;;;5018875;28;20229;-68
2022/12/11 00:46:29;;;;;;;23.03;11.60;;;1.20;99.90;;;;;;5009356;28;20220;-68
2022/12/11 00:48:55;;;;;;;21.13;10.27;;;1.20;99.90;;;;;;5014596;28;20508;-68
2022/12/11 00:51:21;;;;;;;22.77;10.50;;;1.20;99.90;;;;;;5030325;28;20223;-67
2022/12/11 00:53:47;;;;;;;18.20;9.60;;;1.20;99.90;;;;;;5021592;28;20233;-68
2022/12/11 00:56:18;;;;;;;22.30;10.37;;;1.20;99.90;;;;;;5029237;28;20232;-68
2022/12/11 00:58:45;;;;;;;22.20;11.13;;;1.20;99.90;;;;;;5041869;28;20220;-68
2022/12/11 01:01:15;;;;;;;20.43;10.33;;;1.20;99.90;;;;;;5040276;28;20458;-67
2022/12/11 01:03:40;;;;;;;18.70;9.97;;;1.20;99.90;;;;;;5017931;28;20486;-68
2022/12/11 01:06:07;;;;;;;25.17;10.13;;;1.20;99.90;;;;;;5042361;28;20451;-67
2022/12/11 01:08:32;;;;;;;18.13;10.47;;;1.20;99.90;;;;;;5034864;28;20223;-70
2022/12/11 01:11:08;;;;;;;18.37;10.00;;;1.20;99.90;;;;;;5031218;28;20455;-67
2022/12/11 01:13:34;;;;;;;14.77;8.40;;;1.20;99.90;;;;;;5009885;28;20815;-67
2022/12/11 01:16:09;;;;;;;18.30;9.57;;;1.20;99.90;;;;;;5018455;28;20563;-68
2022/12/11 01:18:35;;;;;;;17.87;9.53;;;1.20;99.90;;;;;;5024668;28;20455;-69
2022/12/11 01:21:08;;;;;;;13.20;8.67;;;1.20;99.90;;;;;;5022963;28;20458;-68
2022/12/11 01:23:34;;;;;;;18.63;9.73;;;1.20;99.90;;;;;;5042550;28;20451;-67
2022/12/11 01:26:10;;;;;;;16.20;9.37;;;1.20;99.90;;;;;;5036902;28;20463;-68
2022/12/11 01:28:36;;;;;;;21.67;9.77;;;1.20;99.90;;;;;;5028268;28;20549;-67
2022/12/11 01:31:02;;;;;;;15.70;8.93;;;1.20;99.90;;;;;;5029527;28;20494;-69
2022/12/11 01:33:27;;;;;;;14.87;8.50;;;1.20;99.90;;;;;;5012283;28;20248;-68
2022/12/11 01:35:53;;;;;;;20.47;9.90;;;1.20;99.90;;;;;;5030313;28;20239;-66
2022/12/11 01:38:19;;;;;;;21.40;10.47;;;1.20;99.90;;;;;;5037189;28;20217;-67
2022/12/11 01:40:46;;;;;;;20.23;9.53;;;1.20;99.90;;;;;;5028281;28;20710;-68
2022/12/11 01:43:12;;;;;;;15.53;8.93;;;1.20;99.90;;;;;;5041973;28;20237;-69
2022/12/11 01:45:40;;;;;;;12.93;7.70;;;1.20;99.90;;;;;;5027451;28;20459;-68
2022/12/11 01:48:18;;;;;;;17.17;8.17;;;1.20;99.90;;;;;;5005904;28;20240;-70
2022/12/11 01:51:04;;;;;;;11.50;8.13;;;1.20;99.90;;;;;;5029409;28;20462;-67
2022/12/11 01:53:37;;;;;;;16.33;8.60;;;1.30;99.90;;;;;;5027000;28;20973;-68
2022/12/11 01:56:03;;;;;;;21.30;11.33;;;1.20;99.90;;;;;;5022494;28;20475;-67
2022/12/11 01:58:37;;;;;;;18.33;9.73;;;1.20;99.90;;;;;;5026986;28;20451;-68
2022/12/11 02:01:03;;;;;;;14.10;8.00;;;1.20;99.90;;;;;;5017002;28;20512;-68
2022/12/11 02:03:29;;;;;;;16.70;8.77;;;1.20;99.90;;;;;;5030062;28;20515;-69
2022/12/11 02:05:58;;;;;;;18.83;10.57;;;1.20;99.90;;;;;;5016949;28;20229;-67
2022/12/11 02:08:24;;;;;;;19.60;9.63;;;1.20;99.90;;;;;;5031459;28;20216;-69
2022/12/11 02:11:09;;;;;;;18.10;9.07;;;1.20;99.90;;;;;;5033634;28;20462;-68
2022/12/11 02:13:46;;;;;;;9.20;6.77;;;1.30;99.90;;;;;;5022781;28;20275;-68
2022/12/11 02:16:30;;;;;;;15.27;9.37;;;1.20;99.90;;;;;;5023869;28;20521;-69
2022/12/11 02:19:13;;;;;;;15.57;9.07;;;1.30;99.90;;;;;;5005093;28;20456;-67
2022/12/11 02:21:49;;;;;;;18.40;10.00;;;1.30;99.90;;;;;;5018186;28;20450;-69
2022/12/11 02:24:18;;;;;;;15.87;9.00;;;1.30;99.90;;;;;;5014876;28;20459;-68
2022/12/11 02:26:56;;;;;;;17.70;9.87;;;1.30;99.90;;;;;;5016782;28;20463;-68
2022/12/11 02:29:29;;;;;;;18.73;7.60;;;1.30;99.90;;;;;;5015477;28;20458;-69
2022/12/11 02:32:03;;;;;;;18.30;9.17;;;1.30;99.90;;;;;;5019260;28;20472;-68
2022/12/11 02:34:43;;;;;;;17.63;8.53;;;1.30;99.90;;;;;;5014865;28;20499;-68
2022/12/11 02:37:14;;;;;;;18.53;9.57;;;1.30;99.90;;;;;;5017750;28;20479;-67
2022/12/11 02:39:42;;;;;;;12.60;8.07;;;1.30;99.90;;;;;;5017597;28;20496;-68
2022/12/11 02:42:10;;;;;;;18.17;9.73;;;1.30;99.90;;;;;;5021315;28;20480;-67
2022/12/11 02:44:36;;;;;;;20.00;10.13;;;1.20;99.90;;;;;;5015212;28;20534;-68
2022/12/11 02:47:07;;;;;;;17.57;10.63;;;1.20;99.90;;;;;;5020893;28;20874;-68
2022/12/11 02:49:37;;;;;;;26.30;10.07;;;1.20;99.90;;;;;;5024783;28;20448;-68
2022/12/11 02:52:05;;;;;;;18.37;9.53;;;1.20;99.90;;;;;;5000031;28;20455;-68
2022/12/11 02:54:34;;;;;;;20.63;9.83;;;1.20;99.90;;;;;;4999357;28;20468;-69
2022/12/11 02:57:12;;;;;;;20.53;8.67;;;1.20;99.90;;;;;;5015522;28;20526;-68
2022/12/11 02:59:41;;;;;;;14.60;7.77;;;1.20;99.90;;;;;;5023202;28;20484;-68
2022/12/11 03:02:07;;;;;;;16.50;8.97;;;1.20;99.90;;;;;;5007583;28;20469;-68
2022/12/11 03:04:35;;;;;;;17.07;9.20;;;1.20;99.90;;;;;;5016203;28;20464;-68
2022/12/11 03:07:29;;;;;;;15.00;8.90;;;1.20;99.90;;;;;;5017135;28;20466;-68
2022/12/11 03:09:54;;;;;;;21.63;10.43;;;1.20;99.90;;;;;;5032423;28;20471;-67
2022/12/11 03:12:28;;;;;;;14.20;8.57;;;1.20;99.90;;;;;;5005786;28;20443;-67
2022/12/11 03:14:55;;;;;;;16.50;8.77;;;1.20;99.90;;;;;;5020332;28;20708;-69
2022/12/11 03:17:25;;;;;;;13.30;8.70;;;1.20;99.90;;;;;;5014251;28;20459;-67
2022/12/11 03:20:25;;;;;;;18.00;9.40;;;1.20;99.90;;;;;;5017151;28;20451;-68
2022/12/11 03:23:26;;;;;;;14.53;8.33;;;1.20;99.90;;;;;;5018588;28;20488;-67
2022/12/11 03:26:17;;;;;;;15.47;8.43;;;1.20;99.90;;;;;;5020855;28;20463;-67
2022/12/11 03:28:57;;;;;;;21.87;10.17;;;1.20;99.90;;;;;;5014181;28;20451;-68
2022/12/11 03:31:29;;;;;;;19.70;9.47;;;1.20;99.90;;;;;;5024729;28;20447;-68
2022/12/11 03:33:59;;;;;;;13.77;8.37;;;1.20;99.90;;;;;;5019779;28;20452;-67
2022/12/11 03:36:31;;;;;;;15.73;9.30;;;1.20;99.90;;;;;;5015421;28;20464;-68
2022/12/11 03:39:06;;;;;;;15.60;8.70;;;1.20;99.90;;;;;;5010484;28;20459;-67
2022/12/11 03:41:33;;;;;;;14.53;9.00;;;1.20;99.90;;;;;;5020165;28;20463;-69
2022/12/11 03:43:59;;;;;;;17.93;8.77;;;1.10;99.90;;;;;;5007251;28;20488;-68
2022/12/11 03:46:30;;;;;;;19.20;9.37;;;1.10;99.90;;;;;;5003588;28;20495;-69
2022/12/11 03:49:19;;;;;;;19.13;8.00;;;1.10;99.90;;;;;;5020240;28;20463;-68
2022/12/11 03:51:49;;;;;;;20.30;10.17;;;1.10;99.90;;;;;;5025120;28;20466;-68
2022/12/11 03:54:16;;;;;;;17.50;8.67;;;1.10;99.90;;;;;;5015785;28;20467;-69
2022/12/11 03:56:44;;;;;;;25.83;11.07;;;1.10;99.90;;;;;;5017876;28;20491;-66
2022/12/11 03:59:10;;;;;;;19.10;10.27;;;1.10;99.90;;;;;;5021300;28;20533;-68
2022/12/11 04:01:36;;;;;;;15.50;9.13;;;1.10;99.90;;;;;;5000615;28;20465;-68
2022/12/11 04:04:01;;;;;;;20.23;9.40;;;1.10;99.90;;;;;;5023175;28;20783;-68
2022/12/11 04:06:27;;;;;;;14.10;8.57;;;1.00;99.90;;;;;;5021170;28;20255;-67
2022/12/11 04:08:52;;;;;;;23.03;9.20;;;1.00;99.90;;;;;;4999059;28;20228;-68
2022/12/11 04:11:33;;;;;;;16.77;9.23;;;1.00;99.90;;;;;;5019683;28;20244;-67
2022/12/11 04:16:56;;;;;;;17.30;8.33;;;1.00;99.90;;;;;;5024318;28;20546;-67
2022/12/11 04:24:56;;;;;;;15.80;8.40;;;1.00;99.90;;;;;;5017957;28;20475;-69
2022/12/11 04:30:09;;;;;;;16.80;8.50;;;0.90;99.90;;;;;;5018051;28;20227;-67
2022/12/11 04:32:35;;;;;;;17.80;8.43;;;0.90;99.90;;;;;;5002945;28;20544;-68
2022/12/11 04:35:01;;;;;;;15.00;7.10;;;0.90;99.90;;;;;;5021294;28;20879;-68
2022/12/11 04:37:27;;;;;;;16.67;8.60;;;0.90;99.90;;;;;;5001513;28;20570;-67
2022/12/11 04:39:53;;;;;;;20.00;8.53;;;0.90;99.90;;;;;;5020299;28;20216;-67
2022/12/11 04:42:18;;;;;;;21.87;9.47;;;0.90;99.90;;;;;;5019516;28;20220;-66
2022/12/11 04:44:44;;;;;;;16.60;8.17;;;0.90;99.90;;;;;;5021987;28;20274;-67
2022/12/11 04:47:11;;;;;;;14.77;9.93;;;1.00;99.90;;;;;;5016192;28;20225;-67
2022/12/11 04:49:36;;;;;;;17.97;7.57;;;0.80;99.90;;;;;;5020909;28;20527;-69
2022/12/11 04:52:02;;;;;;;16.50;8.67;;;0.90;99.90;;;;;;5003982;28;20247;-67
2022/12/11 04:54:29;;;;;;;18.20;7.90;;;0.90;99.90;;;;;;5020466;28;20279;-68
2022/12/11 04:56:55;;;;;;;15.37;8.80;;;0.90;99.90;;;;;;5012500;28;20471;-67
2022/12/11 04:59:21;;;;;;;20.70;9.50;;;0.90;99.90;;;;;;4994923;28;20457;-68
2022/12/11 05:01:47;;;;;;;17.17;8.10;;;0.80;99.90;;;;;;4999476;28;20249;-68
2022/12/11 05:04:13;;;;;;;16.57;9.10;;;0.90;99.90;;;;;;5006029;28;20494;-67
2022/12/11 05:06:38;;;;;;;15.13;9.10;;;0.90;99.90;;;;;;5021041;28;20498;-67
2022/12/11 05:09:04;;;;;;;15.33;8.27;;;0.80;99.90;;;;;;5020089;28;20209;-67
2022/12/11 05:11:30;;;;;;;16.50;9.10;;;0.90;99.90;;;;;;5018884;28;20225;-69
2022/12/11 05:13:55;;;;;;;16.40;8.40;;;0.90;99.90;;;;;;5018115;28;20224;-68
2022/12/11 05:16:21;;;;;;;16.93;8.10;;;0.90;99.90;;;;;;5021438;28;20360;-68
2022/12/11 05:18:46;;;;;;;19.97;9.87;;;0.80;99.90;;;;;;5018970;28;20224;-66
2022/12/11 05:21:13;;;;;;;17.83;8.90;;;0.80;99.90;;;;;;5021311;28;20224;-68
2022/12/11 05:23:41;;;;;;;16.43;8.60;;;0.80;99.90;;;;;;5021825;28;20300;-68
2022/12/11 05:26:13;;;;;;;18.07;7.97;;;0.80;99.90;;;;;;5021952;28;20463;-66
2022/12/11 05:28:39;;;;;;;15.70;8.30;;;0.80;99.90;;;;;;5020957;28;20794;-68
2022/12/11 05:31:16;;;;;;;18.30;9.43;;;0.80;99.90;;;;;;5019227;28;20486;-67
2022/12/11 05:33:42;;;;;;;14.23;8.37;;;0.80;99.90;;;;;;5032951;28;20460;-68
2022/12/11 05:36:12;;;;;;;19.17;9.20;;;0.80;99.90;;;;;;5024737;28;20478;-67
2022/12/11 05:38:38;;;;;;;15.10;8.23;;;0.90;99.90;;;;;;4998863;28;20494;-68
2022/12/11 05:41:05;;;;;;;14.20;8.40;;;0.90;99.90;;;;;;5019643;28;20472;-67
2022/12/11 05:43:33;;;;;;;15.13;8.43;;;0.90;99.90;;;;;;5019776;28;20221;-67
2022/12/11 05:46:12;;;;;;;17.00;8.50;;;0.90;99.90;;;;;;5022359;28;20459;-68
2022/12/11 05:48:38;;;;;;;11.83;8.40;;;0.90;99.90;;;;;;5026788;28;20458;-68
2022/12/11 05:51:05;;;;;;;21.50;10.07;;;0.80;99.90;;;;;;5021015;28;20447;-67
2022/12/11 05:53:31;;;;;;;16.50;10.00;;;0.70;99.90;;;;;;5015264;28;20232;-68
2022/12/11 05:56:02;;;;;;;31.77;10.10;;;0.70;99.90;;;;;;5015214;28;20495;-68
2022/12/11 05:58:28;;;;;;;14.97;8.73;;;0.70;99.90;;;;;;5018228;28;20479;-67
2022/12/11 06:00:54;;;;;;;16.57;8.37;;;0.70;99.90;;;;;;5018892;28;20459;-67
2022/12/11 06:03:19;;;;;;;18.53;11.33;;;0.70;99.90;;;;;;5016763;28;20448;-67
2022/12/11 06:05:45;;;;;;;16.60;9.20;;;0.70;99.90;;;;;;5021333;28;20247;-67
2022/12/11 06:08:11;;;;;;;14.90;8.43;;;0.70;99.90;;;;;;5017520;28;20876;-67
2022/12/11 06:10:37;;;;;;;17.83;9.13;;;0.70;99.90;;;;;;5016181;28;20225;-68
2022/12/11 06:13:02;;;;;;;17.33;8.87;;;0.70;99.90;;;;;;5018899;28;20230;-68
2022/12/11 06:15:28;;;;;;;18.03;9.23;;;0.70;99.90;;;;;;5013116;28;20224;-68
2022/12/11 06:17:54;;;;;;;18.57;8.80;;;0.70;99.90;;;;;;5014767;28;20432;-67
2022/12/11 06:20:20;;;;;;;16.03;8.60;;;0.70;99.90;;;;;;5014717;28;20681;-68
2022/12/11 06:22:45;;;;;;;16.90;9.10;;;0.60;99.90;;;;;;5000192;28;20299;-68
2022/12/11 06:25:11;;;;;;;16.30;7.70;;;0.60;99.90;;;;;;5017492;28;20315;-67
2022/12/11 06:27:37;;;;;;;12.77;8.57;;;0.60;99.90;;;;;;5016672;28;20224;-67
2022/12/11 06:30:02;;;;;;;16.50;9.23;;;0.60;99.90;;;;;;5000140;28;20236;-68
2022/12/11 06:32:28;;;;;;;22.83;8.87;;;0.60;99.90;;;;;;5002637;28;20221;-68
2022/12/11 06:34:54;;;;;;;19.10;8.97;;;0.60;99.90;;;;;;5015788;28;20223;-68
2022/12/11 06:37:20;;;;;;;13.10;7.50;;;0.60;99.90;;;;;;5016031;28;20375;-68
2022/12/11 06:39:45;;;;;;;18.13;8.67;;;0.60;99.90;;;;;;5013231;28;20210;-69
2022/12/11 06:42:12;;;;;;;20.27;10.23;;;0.60;99.90;;;;;;5016683;28;20224;-67
2022/12/11 06:44:37;;;;;;;17.30;9.40;;;0.70;99.90;;;;;;5000783;28;20234;-67
2022/12/11 06:47:04;;;;;;;17.67;9.73;;;0.70;99.90;;;;;;4992864;28;20460;-68
2022/12/11 06:49:29;;;;;;;22.23;10.07;;;0.70;99.90;;;;;;5007018;28;20221;-68
2022/12/11 06:51:55;;;;;;;18.97;9.80;;;0.70;99.90;;;;;;5024572;28;20464;-68
2022/12/11 06:54:27;;;;;;;23.33;11.80;;;0.70;99.90;;;;;;4997770;28;20240;-67
2022/12/11 06:56:53;;;;;;;22.13;12.00;;;0.70;99.90;;;;;;5019187;28;20252;-68
2022/12/11 06:59:19;;;;;;;17.43;10.40;;;0.70;99.90;;;;;;4997245;28;20542;-68
2022/12/11 07:01:44;;;;;;;18.73;10.73;;;0.60;99.90;;;;;;5019628;28;20221;-68
2022/12/11 07:04:10;;;;;;;20.70;9.77;;;0.60;99.90;;;;;;4995536;28;20233;-68
2022/12/11 07:06:36;;;;;;;16.80;10.00;;;0.60;99.90;;;;;;5018216;28;20259;-68
2022/12/11 07:09:05;;;;;;;17.57;9.07;;;0.60;99.90;;;;;;5011936;28;20217;-68
2022/12/11 07:11:31;;;;;;;16.73;9.83;;;0.70;99.90;;;;;;5016816;28;20231;-68
2022/12/11 07:13:59;;;;;;;19.77;11.03;;;0.70;99.90;;;;;;5003272;28;20534;-68
2022/12/11 07:16:25;;;;;;;22.17;9.60;;;0.70;99.90;;;;;;5012560;28;20457;-68
2022/12/11 07:18:54;;;;;;;18.97;9.70;;;0.70;99.90;;;;;;5015506;28;20494;-67
2022/12/11 07:21:20;;;;;;;18.57;9.53;;;0.70;99.90;;;;;;5016468;28;20494;-68
2022/12/11 07:23:47;;;;;;;19.60;10.00;;;0.70;99.90;;;;;;5016450;28;20499;-68
2022/12/11 07:26:15;;;;;;;30.17;12.27;;;0.70;99.90;;;;;;5015424;28;20492;-68
2022/12/11 07:28:41;;;;;;;44.53;20.70;;;0.70;99.90;;;;;;5014285;28;20467;-68
2022/12/11 07:31:19;;;;;;;37.93;18.53;;;0.70;99.90;;;;;;5005330;28;20448;-68
2022/12/11 07:33:45;;;;;;;25.17;12.47;;;0.70;99.90;;;;;;4996741;28;20494;-69
2022/12/11 07:36:13;;;;;;;20.73;11.20;;;0.60;99.90;;;;;;5013437;28;20469;-68
2022/12/11 07:38:39;;;;;;;22.60;11.20;;;0.60;99.90;;;;;;5011281;28;20459;-68
2022/12/11 07:41:09;;;;;;;24.63;11.53;;;0.60;99.90;;;;;;5016298;28;20512;-67
2022/12/11 07:43:35;;;;;;;22.07;9.27;;;0.60;99.90;;;;;;5015249;28;20456;-68
2022/12/11 07:46:06;;;;;;;29.37;13.60;;;0.60;99.90;;;;;;5017865;28;20467;-68
2022/12/11 07:48:35;;;;;;;20.70;10.60;;;0.70;99.90;;;;;;5011405;28;20464;-68
2022/12/11 07:51:13;;;;;;;23.13;10.57;;;0.70;99.90;;;;;;5000370;28;20467;-66
2022/12/11 07:53:40;;;;;;;23.97;11.40;;;0.70;99.90;;;;;;5014630;28;20536;-67
2022/12/11 07:56:06;;;;;;;20.80;9.40;;;0.70;99.90;;;;;;5002632;28;20506;-68
2022/12/11 07:58:32;;;;;;;18.93;12.07;;;0.70;99.90;;;;;;5031214;28;20483;-67
2022/12/11 08:00:57;;;;;;;16.43;9.90;;;0.70;99.90;;;;;;5013198;28;20542;-67
2022/12/11 08:03:23;;;;;;;22.10;11.60;;;0.70;99.90;;;;;;5016519;28;20212;-67
2022/12/11 08:05:50;;;;;;;19.73;11.10;;;0.70;99.90;;;;;;5016528;28;20217;-67
2022/12/11 08:08:16;;;;;;;24.77;12.57;;;0.70;99.90;;;;;;5023153;28;20445;-67
2022/12/11 08:10:42;;;;;;;20.57;10.60;;;0.70;99.90;;;;;;5016020;28;20451;-68
2022/12/11 08:13:08;;;;;;;20.80;11.70;;;0.60;99.90;;;;;;5014531;28;20451;-68
2022/12/11 08:15:34;;;;;;;22.70;11.80;;;0.70;99.90;;;;;;5019036;28;20474;-68
2022/12/11 08:18:00;;;;;;;25.47;12.13;;;0.70;99.90;;;;;;5016729;28;20212;-68
2022/12/11 08:20:26;;;;;;;26.17;15.40;;;0.70;99.90;;;;;;5012857;28;20522;-69
2022/12/11 08:22:52;;;;;;;29.37;15.47;;;0.70;99.90;;;;;;5016228;28;20601;-68
2022/12/11 08:25:17;;;;;;;23.03;14.60;;;0.70;99.90;;;;;;5023431;28;20454;-68
2022/12/11 08:27:43;;;;;;;31.13;15.70;;;0.70;99.90;;;;;;5020011;28;20296;-67
2022/12/11 08:30:09;;;;;;;30.30;14.77;;;0.70;99.90;;;;;;4999397;28;20309;-68
2022/12/11 08:32:35;;;;;;;29.17;15.70;;;0.70;99.90;;;;;;5022327;28;20231;-67
2022/12/11 08:35:01;;;;;;;35.77;16.07;;;0.70;99.90;;;;;;5002540;28;20461;-68
2022/12/11 08:37:28;;;;;;;42.10;17.70;;;0.70;99.90;;;;;;5019165;28;20272;-68
2022/12/11 08:39:54;;;;;;;29.50;15.40;;;0.70;99.90;;;;;;5019674;28;20225;-67
2022/12/11 08:42:20;;;;;;;37.53;16.77;;;0.70;99.90;;;;;;5024734;28;20492;-68
2022/12/11 08:44:45;;;;;;;43.00;19.23;;;0.80;99.90;;;;;;5014912;28;20495;-68
2022/12/11 08:47:11;;;;;;;31.97;16.63;;;0.80;99.90;;;;;;5018066;28;20221;-69
2022/12/11 08:49:37;;;;;;;33.67;17.57;;;0.80;99.90;;;;;;5017183;28;20272;-68
2022/12/11 08:52:03;;;;;;;31.50;15.67;;;0.80;99.90;;;;;;5002488;28;20762;-68
2022/12/11 08:54:29;;;;;;;23.00;11.77;;;0.80;99.90;;;;;;5023220;28;20290;-67
2022/12/11 08:56:55;;;;;;;26.20;15.27;;;0.80;99.90;;;;;;5019702;28;20555;-68
2022/12/11 08:59:21;;;;;;;28.80;15.47;;;0.80;99.90;;;;;;5004307;28;20542;-69
2022/12/11 09:01:46;;;;;;;28.70;15.40;;;0.80;99.90;;;;;;5016686;28;20232;-68
2022/12/11 09:04:12;;;;;;;21.90;12.93;;;0.80;99.90;;;;;;5018862;28;20281;-67
2022/12/11 09:06:38;;;;;;;22.80;10.00;;;0.80;99.90;;;;;;5017480;28;20288;-68
2022/12/11 09:09:04;;;;;;;24.03;11.53;;;0.80;99.90;;;;;;5009019;28;20244;-68
2022/12/11 09:11:32;;;;;;;21.57;11.07;;;0.80;99.90;;;;;;5010303;28;20224;-67
2022/12/11 09:13:59;;;;;;;19.03;9.87;;;0.80;99.90;;;;;;5018753;28;20455;-68
2022/12/11 09:16:26;;;;;;;24.97;12.40;;;0.80;99.90;;;;;;5022471;28;20570;-68
2022/12/11 09:18:54;;;;;;;21.00;9.90;;;0.80;99.90;;;;;;5018393;28;20469;-68
2022/12/11 09:21:23;;;;;;;17.90;10.70;;;0.90;99.90;;;;;;4998251;28;20453;-68
2022/12/11 09:23:52;;;;;;;28.00;11.87;;;0.90;99.90;;;;;;5019115;28;21053;-68
2022/12/11 09:26:18;;;;;;;22.53;12.40;;;0.90;99.90;;;;;;5008353;28;20456;-67
2022/12/11 09:28:45;;;;;;;19.27;11.40;;;0.80;99.90;;;;;;5000258;28;21111;-68
2022/12/11 09:31:16;;;;;;;20.50;11.07;;;0.90;99.90;;;;;;5015598;28;20598;-68
2022/12/11 09:33:42;;;;;;;16.03;9.87;;;0.90;99.90;;;;;;5005695;28;20475;-68
2022/12/11 09:36:08;;;;;;;22.57;11.00;;;0.90;99.90;;;;;;5001689;28;20468;-68
2022/12/11 09:38:35;;;;;;;29.87;11.20;;;0.80;99.90;;;;;;5018867;28;20453;-68
2022/12/11 09:41:01;;;;;;;24.47;10.77;;;0.80;99.90;;;;;;5021732;28;20452;-68
2022/12/11 09:43:36;;;;;;;17.20;9.87;;;0.90;99.90;;;;;;4994193;28;20547;-68
2022/12/11 09:46:06;;;;;;;20.70;10.30;;;0.90;99.90;;;;;;5013136;28;20469;-69
2022/12/11 09:48:33;;;;;;;19.30;8.70;;;0.90;99.90;;;;;;5016372;28;20467;-68
2022/12/11 09:51:09;;;;;;;23.70;9.30;;;0.90;99.90;;;;;;5007536;28;20547;-68
2022/12/11 09:53:36;;;;;;;23.73;11.27;;;0.90;99.90;;;;;;5020193;28;20540;-67
2022/12/11 09:56:32;;;;;;;19.13;11.07;;;1.00;99.90;;;;;;5012597;28;20846;-68
2022/12/11 09:59:09;;;;;;;16.00;10.40;;;1.00;99.90;;;;;;5011020;28;20555;-68
2022/12/11 10:01:47;;;;;;;21.37;9.23;;;1.00;99.90;;;;;;5006480;28;20502;-67
2022/12/11 10:04:41;;;;;;;22.97;12.70;;;1.00;99.90;;;;;;5012343;28;20973;-68
2022/12/11 10:07:14;;;;;;;21.13;10.30;;;1.00;99.90;;;;;;5008699;28;20464;-68
2022/12/11 10:09:42;;;;;;;15.43;9.70;;;1.00;99.90;;;;;;5022259;28;20505;-67
2022/12/11 10:12:11;;;;;;;24.93;12.57;;;1.10;99.90;;;;;;5022290;28;20987;-67
2022/12/11 10:15:13;;;;;;;21.77;11.37;;;1.00;99.90;;;;;;5004184;28;20470;-67
2022/12/11 10:17:41;;;;;;;23.70;11.27;;;1.00;99.90;;;;;;5018707;28;20459;-68
2022/12/11 10:20:30;;;;;;;26.43;14.30;;;1.00;99.90;;;;;;5017746;28;20464;-67
2022/12/11 10:22:57;;;;;;;22.40;12.40;;;1.00;99.90;;;;;;5018643;28;20463;-67
2022/12/11 10:25:30;;;;;;;19.73;13.60;;;1.10;99.90;;;;;;5014610;28;20561;-67
2022/12/11 10:27:56;;;;;;;23.97;12.40;;;1.10;99.90;;;;;;5001196;28;20997;-67
2022/12/11 10:30:25;;;;;;;17.83;11.20;;;1.10;99.90;;;;;;5021767;28;20459;-68
2022/12/11 10:33:03;;;;;;;22.80;11.70;;;1.20;99.90;;;;;;5005050;28;20463;-67
2022/12/11 10:35:32;;;;;;;20.97;12.00;;;1.20;99.90;;;;;;5017386;28;20463;-68
2022/12/11 10:38:12;;;;;;;25.73;12.70;;;1.20;99.90;;;;;;5012837;28;20542;-67
2022/12/11 10:40:42;;;;;;;21.03;10.77;;;1.20;99.90;;;;;;5034775;28;20479;-68
2022/12/11 10:43:09;;;;;;;18.00;10.77;;;1.20;99.90;;;;;;5015217;28;20515;-68
2022/12/11 10:45:36;;;;;;;22.10;12.47;;;1.20;99.90;;;;;;5012726;28;20560;-68
2022/12/11 10:48:09;;;;;;;16.73;9.97;;;1.20;99.90;;;;;;5007604;28;20470;-69
2022/12/11 10:50:36;;;;;;;23.00;12.00;;;1.20;99.90;;;;;;5017843;28;20460;-68
2022/12/11 10:53:01;;;;;;;20.37;10.57;;;1.20;99.90;;;;;;5022494;28;20469;-68
2022/12/11 10:55:42;;;;;;;16.27;9.13;;;1.20;99.90;;;;;;4998485;28;20547;-68
2022/12/11 10:58:18;;;;;;;21.93;9.80;;;1.20;99.90;;;;;;5020385;28;20224;-68
2022/12/11 11:00:44;;;;;;;18.83;10.97;;;1.20;99.90;;;;;;4987045;28;20533;-67
2022/12/11 11:03:24;;;;;;;14.60;9.47;;;1.30;99.90;;;;;;5017914;28;20454;-67
2022/12/11 11:06:20;;;;;;;16.70;9.50;;;1.30;99.90;;;;;;5003199;28;20460;-67
2022/12/11 11:08:52;;;;;;;13.23;8.57;;;1.30;99.90;;;;;;5016032;28;20482;-68
2022/12/11 11:11:31;;;;;;;19.90;9.73;;;1.30;99.90;;;;;;5018736;28;20459;-66
2022/12/11 11:14:17;;;;;;;14.80;8.77;;;1.30;99.90;;;;;;5015011;28;21083;-67
2022/12/11 11:16:49;;;;;;;17.23;9.20;;;1.30;99.90;;;;;;5019957;28;20475;-68
2022/12/11 11:19:17;;;;;;;18.73;9.57;;;1.30;99.90;;;;;;5015019;28;20487;-68
2022/12/11 11:21:50;;;;;;;18.63;9.07;;;1.40;99.90;;;;;;5015267;28;20475;-67
2022/12/11 11:24:37;;;;;;;17.43;10.57;;;1.40;99.90;;;;;;5016949;28;20478;-69
2022/12/11 11:27:12;;;;;;;15.50;8.23;;;1.40;99.90;;;;;;5022079;28;20458;-67
2022/12/11 11:29:38;;;;;;;15.80;9.07;;;1.40;99.90;;;;;;5014448;28;20467;-67
2022/12/11 11:32:21;;;;;;;21.27;10.37;;;1.40;99.90;;;;;;5001655;28;20546;-67
2022/12/11 11:34:47;;;;;;;18.77;9.73;;;1.40;99.90;;;;;;5018673;28;20224;-68
2022/12/11 11:37:24;;;;;;;18.30;10.37;;;1.40;99.90;;;;;;5015011;28;20533;-67
2022/12/11 11:39:53;;;;;;;19.73;10.27;;;1.40;99.90;;;;;;5018475;28;20208;-67
2022/12/11 11:42:31;;;;;;;22.60;10.80;;;1.40;99.90;;;;;;5017255;28;20464;-67
2022/12/11 11:45:19;;;;;;;27.77;12.00;;;1.40;99.90;;;;;;5017561;28;20478;-67
2022/12/11 11:48:35;;;;;;;24.70;10.17;;;1.40;99.90;;;;;;5016559;28;20468;-67
2022/12/11 11:51:13;;;;;;;24.13;9.30;;;1.40;99.90;;;;;;5012908;28;20455;-68
2022/12/11 11:53:40;;;;;;;24.20;10.10;;;1.40;99.90;;;;;;5014375;28;20462;-68
2022/12/11 11:56:15;;;;;;;19.40;10.50;;;1.40;99.90;;;;;;5021838;28;20472;-67
2022/12/11 11:58:42;;;;;;;20.70;10.43;;;1.40;99.90;;;;;;5012156;28;20460;-68
2022/12/11 12:01:16;;;;;;;19.93;10.00;;;1.40;99.90;;;;;;5004502;28;20457;-68
2022/12/11 12:03:42;;;;;;;21.20;11.00;;;1.50;99.90;;;;;;5010247;28;20456;-67
2022/12/11 12:06:35;;;;;;;19.00;9.17;;;1.50;99.90;;;;;;5015660;28;20491;-68
2022/12/11 12:09:21;;;;;;;20.53;11.03;;;1.50;99.90;;;;;;5020732;28;20460;-68
2022/12/11 12:12:13;;;;;;;16.57;9.80;;;1.50;99.90;;;;;;4999983;28;20474;-67
2022/12/11 12:14:44;;;;;;;24.37;11.50;;;1.50;99.90;;;;;;5012030;28;20473;-67
2022/12/11 12:17:41;;;;;;;19.60;9.07;;;1.50;99.90;;;;;;5031321;28;20478;-66
2022/12/11 12:20:12;;;;;;;18.60;10.23;;;1.50;99.90;;;;;;5020904;28;20472;-68
2022/12/11 12:22:55;;;;;;;19.50;11.37;;;1.50;99.90;;;;;;5018397;28;20456;-66
2022/12/11 12:25:49;;;;;;;24.63;13.90;;;1.50;99.90;;;;;;5017239;28;20500;-66
2022/12/11 12:28:44;;;;;;;21.00;12.80;;;1.50;99.90;;;;;;5006039;28;20544;-65
2022/12/11 12:31:35;;;;;;;20.90;12.17;;;1.50;99.90;;;;;;5028010;28;20466;-67
2022/12/11 12:34:04;;;;;;;26.20;12.97;;;1.60;99.90;;;;;;5038319;28;20455;-66
2022/12/11 12:36:52;;;;;;;28.33;14.50;;;1.60;99.90;;;;;;5019120;28;20533;-66
2022/12/11 12:39:52;;;;;;;31.77;16.30;;;1.60;99.90;;;;;;5019207;28;20467;-67
2022/12/11 12:42:36;;;;;;;21.67;13.33;;;1.60;99.90;;;;;;5020007;28;20475;-69
2022/12/11 12:45:14;;;;;;;21.00;12.50;;;1.60;99.90;;;;;;5020646;28;20466;-69
2022/12/11 12:47:42;;;;;;;20.80;11.43;;;1.60;99.90;;;;;;5028769;28;20463;-69
2022/12/11 12:50:15;;;;;;;15.47;10.27;;;1.60;99.90;;;;;;5019161;28;20459;-66
2022/12/11 12:52:41;;;;;;;18.80;10.10;;;1.60;99.90;;;;;;5019475;28;20551;-68
2022/12/11 12:55:12;;;;;;;26.07;12.50;;;1.60;99.90;;;;;;5009558;28;20471;-68
2022/12/11 12:57:49;;;;;;;18.10;9.70;;;1.60;99.90;;;;;;5020268;28;20474;-69
2022/12/11 13:00:35;;;;;;;18.43;10.37;;;1.60;99.90;;;;;;5034152;28;20977;-68
2022/12/11 13:03:21;;;;;;;22.47;10.23;;;1.60;99.90;;;;;;5029248;28;20464;-69
2022/12/11 13:05:59;;;;;;;17.83;10.10;;;1.60;99.90;;;;;;5030048;28;20476;-67
2022/12/11 13:08:29;;;;;;;14.37;9.83;;;1.60;99.90;;;;;;5028906;28;20443;-69
2022/12/11 13:11:02;;;;;;;24.03;12.83;;;1.60;99.90;;;;;;5036439;28;20489;-69